createdAt,value
2016-12-09T00:00:43.136Z,7.36
2016-12-09T00:01:54.121Z,7.39
2016-12-09T00:03:05.118Z,7.34
2016-12-09T00:04:16.112Z,7.4
2016-12-09T00:05:27.344Z,7.37
2016-12-09T00:06:38.339Z,7.39
2016-12-09T00:07:49.327Z,7.37
2016-12-09T00:09:00.311Z,7.44
2016-12-09T00:10:11.297Z,7.34
2016-12-09T00:11:22.328Z,7.37
2016-12-09T00:12:33.303Z,7.39
2016-12-09T00:13:44.289Z,7.41
2016-12-09T00:14:55.279Z,7.39
2016-12-09T00:16:06.678Z,7.39
2016-12-09T00:17:17.740Z,7.39
2016-12-09T00:18:28.724Z,7.44
2016-12-09T00:19:39.710Z,7.47
2016-12-09T00:20:50.690Z,7.39
2016-12-09T00:22:01.692Z,7.45
2016-12-09T00:23:12.940Z,7.45
2016-12-09T00:24:23.931Z,7.44
2016-12-09T00:25:34.931Z,7.48
2016-12-09T00:26:45.917Z,7.56
2016-12-09T00:27:57.098Z,7.45
2016-12-09T00:29:08.138Z,7.52
2016-12-09T00:30:19.121Z,7.4
2016-12-09T00:31:30.306Z,7.49
2016-12-09T00:32:41.304Z,7.48
2016-12-09T00:33:52.492Z,7.58
2016-12-09T00:35:03.528Z,7.59
2016-12-09T00:36:14.521Z,7.67
2016-12-09T00:37:25.497Z,7.59
2016-12-09T00:38:36.497Z,7.56
2016-12-09T00:39:47.480Z,7.64
2016-12-09T00:40:58.512Z,7.56
2016-12-09T00:42:09.501Z,7.54
2016-12-09T00:43:20.487Z,7.59
2016-12-09T00:44:31.477Z,7.59
2016-12-09T00:45:42.470Z,7.63
2016-12-09T00:46:53.520Z,7.58
2016-12-09T00:48:04.506Z,7.58
2016-12-09T00:49:15.497Z,7.56
2016-12-09T00:50:26.486Z,7.61
2016-12-09T00:51:37.471Z,7.58
2016-12-09T00:52:48.504Z,7.61
2016-12-09T00:53:59.491Z,7.64
2016-12-09T00:55:10.480Z,7.7
2016-12-09T00:56:21.696Z,7.73
2016-12-09T00:57:32.681Z,7.63
2016-12-09T00:58:43.715Z,7.68
2016-12-09T00:59:54.698Z,7.61
2016-12-09T01:01:05.680Z,7.58
2016-12-09T01:02:16.663Z,7.64
2016-12-09T01:03:27.856Z,7.67
2016-12-09T01:04:38.895Z,7.67
2016-12-09T01:05:49.887Z,7.61
2016-12-09T01:07:00.867Z,7.63
2016-12-09T01:08:11.852Z,7.68
2016-12-09T01:09:22.841Z,7.68
2016-12-09T01:10:33.879Z,7.67
2016-12-09T01:11:44.870Z,7.61
2016-12-09T01:12:55.880Z,7.58
2016-12-09T01:14:07.067Z,7.55
2016-12-09T01:15:18.069Z,7.63
2016-12-09T01:16:29.103Z,7.54
2016-12-09T01:17:40.297Z,7.58
2016-12-09T01:18:51.298Z,7.59
2016-12-09T01:20:02.280Z,7.56
2016-12-09T01:21:13.273Z,7.52
2016-12-09T01:22:24.311Z,7.61
2016-12-09T01:23:35.298Z,7.48
2016-12-09T01:24:46.286Z,7.59
2016-12-09T01:25:57.273Z,7.49
2016-12-09T01:27:08.254Z,7.47
2016-12-09T01:28:19.324Z,7.51
2016-12-09T01:29:30.503Z,7.44
2016-12-09T01:30:41.498Z,7.45
2016-12-09T01:31:52.492Z,7.48
2016-12-09T01:33:03.482Z,7.51
2016-12-09T01:34:14.520Z,7.55
2016-12-09T01:35:25.504Z,7.55
2016-12-09T01:36:36.695Z,7.48
2016-12-09T01:37:47.679Z,7.59
2016-12-09T01:38:58.674Z,7.55
2016-12-09T01:40:09.712Z,7.63
2016-12-09T01:41:20.690Z,7.55
2016-12-09T01:42:31.676Z,7.59
2016-12-09T01:43:42.666Z,7.56
2016-12-09T01:44:53.656Z,7.59
2016-12-09T01:46:04.900Z,7.58
2016-12-09T01:47:15.884Z,7.59
2016-12-09T01:48:26.865Z,7.55
2016-12-09T01:49:37.856Z,7.56
2016-12-09T01:50:48.839Z,7.61
2016-12-09T01:52:00.077Z,7.51
2016-12-09T01:53:11.070Z,7.58
2016-12-09T01:54:22.060Z,7.63
2016-12-09T01:55:33.044Z,7.61
2016-12-09T01:56:44.034Z,7.59
2016-12-09T01:57:55.277Z,7.67
2016-12-09T01:59:06.469Z,7.73
2016-12-09T02:00:17.455Z,7.68
2016-12-09T02:01:28.443Z,7.68
2016-12-09T02:02:39.451Z,7.74
2016-12-09T02:03:50.485Z,7.73
2016-12-09T02:05:01.493Z,7.77
2016-12-09T02:06:12.508Z,7.73
2016-12-09T02:07:23.765Z,7.74
2016-12-09T02:08:34.962Z,7.75
2016-12-09T02:09:46.207Z,7.75
2016-12-09T02:10:57.205Z,7.78
2016-12-09T02:12:08.195Z,7.88
2016-12-09T02:13:19.185Z,7.85
2016-12-09T02:14:30.205Z,7.78
2016-12-09T02:15:41.253Z,7.77
2016-12-09T02:16:52.238Z,7.82
2016-12-09T02:18:03.227Z,7.77
2016-12-09T02:19:14.223Z,7.78
2016-12-09T02:20:25.209Z,7.77
2016-12-09T02:21:36.276Z,7.82
2016-12-09T02:22:47.264Z,7.86
2016-12-09T02:23:58.255Z,7.88
2016-12-09T02:25:09.252Z,7.83
2016-12-09T02:26:20.241Z,7.88
2016-12-09T02:27:31.282Z,7.82
2016-12-09T02:28:42.305Z,7.88
2016-12-09T02:29:53.293Z,7.91
2016-12-09T02:31:04.275Z,7.92
2016-12-09T02:32:15.473Z,7.91
2016-12-09T02:33:26.527Z,7.92
2016-12-09T02:34:37.525Z,7.98
2016-12-09T02:35:48.509Z,7.98
2016-12-09T02:36:59.494Z,7.98
2016-12-09T02:38:10.486Z,8.03
2016-12-09T02:39:21.520Z,8.03
2016-12-09T02:40:32.712Z,8.07
2016-12-09T02:41:43.698Z,8.09
2016-12-09T02:42:54.709Z,8.04
2016-12-09T02:44:06.108Z,8.1
2016-12-09T02:45:17.149Z,8.07
2016-12-09T02:46:28.132Z,8.01
2016-12-09T02:47:39.124Z,8.07
2016-12-09T02:48:50.108Z,8.21
2016-12-09T02:50:01.094Z,8.07
2016-12-09T02:51:12.339Z,8.11
2016-12-09T02:52:23.348Z,8.06
2016-12-09T02:53:34.533Z,8.09
2016-12-09T02:54:45.526Z,8.06
2016-12-09T02:55:56.717Z,8.06
2016-12-09T02:57:07.957Z,8.06
2016-12-09T02:58:19.349Z,8.06
2016-12-09T02:59:30.336Z,7.99
2016-12-09T03:00:41.351Z,8.09
2016-12-09T03:01:52.536Z,8.07
2016-12-09T03:03:03.585Z,8.07
2016-12-09T03:04:14.572Z,8.04
2016-12-09T03:05:25.556Z,8.1
2016-12-09T03:06:36.754Z,8.06
2016-12-09T03:07:47.968Z,8.07
2016-12-09T03:08:59.028Z,8.04
2016-12-09T03:10:10.007Z,8.14
2016-12-09T03:11:20.998Z,8.19
2016-12-09T03:12:31.983Z,8.11
2016-12-09T03:13:43.172Z,8.14
2016-12-09T03:14:54.416Z,8.1
2016-12-09T03:16:05.397Z,8.06
2016-12-09T03:17:16.396Z,8.14
2016-12-09T03:18:27.575Z,8.07
2016-12-09T03:19:38.592Z,8.07
2016-12-09T03:20:49.825Z,7.96
2016-12-09T03:22:00.813Z,8.07
2016-12-09T03:23:12.000Z,8.04
2016-12-09T03:24:22.985Z,8.01
2016-12-09T03:25:33.962Z,8.09
2016-12-09T03:26:44.999Z,8.06
2016-12-09T03:27:55.989Z,8.09
2016-12-09T03:29:06.984Z,8.01
2016-12-09T03:30:18.171Z,8.09
2016-12-09T03:31:29.157Z,7.96
2016-12-09T03:32:40.191Z,7.98
2016-12-09T03:33:51.192Z,8.04
2016-12-09T03:35:02.210Z,8.09
2016-12-09T03:36:13.201Z,8.04
2016-12-09T03:37:24.599Z,7.95
2016-12-09T03:38:35.641Z,8.01
2016-12-09T03:39:46.633Z,7.93
2016-12-09T03:40:57.618Z,7.96
2016-12-09T03:42:08.808Z,7.95
2016-12-09T03:43:19.797Z,7.99
2016-12-09T03:44:30.836Z,7.95
2016-12-09T03:45:41.820Z,7.95
2016-12-09T03:46:52.803Z,7.98
2016-12-09T03:48:03.796Z,7.92
2016-12-09T03:49:14.780Z,7.89
2016-12-09T03:50:26.032Z,7.92
2016-12-09T03:51:37.028Z,7.98
2016-12-09T03:52:48.017Z,7.92
2016-12-09T03:53:58.997Z,7.93
2016-12-09T03:55:09.983Z,7.99
2016-12-09T03:56:21.228Z,7.96
2016-12-09T03:57:32.220Z,7.99
2016-12-09T03:58:43.406Z,7.99
2016-12-09T03:59:54.385Z,7.98
2016-12-09T04:01:05.373Z,7.95
2016-12-09T04:02:16.613Z,7.91
2016-12-09T04:03:27.600Z,7.88
2016-12-09T04:04:38.791Z,7.88
2016-12-09T04:05:49.784Z,7.92
2016-12-09T04:07:00.979Z,7.86
2016-12-09T04:08:12.005Z,7.85
2016-12-09T04:09:22.993Z,7.83
2016-12-09T04:10:33.983Z,7.86
2016-12-09T04:11:44.968Z,7.82
2016-12-09T04:12:55.955Z,7.8
2016-12-09T04:14:06.995Z,7.85
2016-12-09T04:15:18.189Z,7.91
2016-12-09T04:16:29.373Z,7.8
2016-12-09T04:17:40.390Z,7.89
2016-12-09T04:18:51.616Z,7.83
2016-12-09T04:20:02.854Z,7.86
2016-12-09T04:21:13.861Z,7.85
2016-12-09T04:22:24.847Z,7.88
2016-12-09T04:23:35.839Z,7.89
2016-12-09T04:24:46.833Z,7.86
2016-12-09T04:25:57.874Z,7.83
2016-12-09T04:27:08.856Z,7.85
2016-12-09T04:28:19.842Z,7.83
2016-12-09T04:29:31.038Z,7.83
2016-12-09T04:30:42.033Z,7.88
2016-12-09T04:31:53.067Z,7.86
2016-12-09T04:33:04.063Z,7.85
2016-12-09T04:34:15.046Z,7.82
2016-12-09T04:35:26.236Z,7.85
2016-12-09T04:36:37.215Z,7.89
2016-12-09T04:37:48.253Z,7.88
2016-12-09T04:38:59.231Z,7.93
2016-12-09T04:40:10.224Z,7.91
2016-12-09T04:41:21.411Z,7.82
2016-12-09T04:42:32.604Z,7.93
2016-12-09T04:43:43.635Z,7.92
2016-12-09T04:44:54.825Z,7.82
2016-12-09T04:46:05.833Z,7.86
2016-12-09T04:47:16.813Z,7.83
2016-12-09T04:48:27.800Z,7.85
2016-12-09T04:49:38.845Z,7.86
2016-12-09T04:50:50.242Z,7.83
2016-12-09T04:52:01.235Z,7.85
2016-12-09T04:53:12.224Z,7.91
2016-12-09T04:54:23.206Z,7.85
2016-12-09T04:55:34.246Z,7.78
2016-12-09T04:56:45.442Z,7.82
2016-12-09T04:57:56.438Z,7.77
2016-12-09T04:59:07.428Z,7.86
2016-12-09T05:00:18.416Z,7.82
2016-12-09T05:01:29.463Z,7.83
2016-12-09T05:02:40.452Z,7.83
2016-12-09T05:03:51.438Z,7.82
2016-12-09T05:05:02.424Z,7.92
2016-12-09T05:06:13.411Z,7.92
2016-12-09T05:07:24.444Z,7.92
2016-12-09T05:08:35.438Z,7.98
2016-12-09T05:09:46.431Z,7.99
2016-12-09T05:10:57.442Z,7.92
2016-12-09T05:12:08.433Z,7.92
2016-12-09T05:13:19.471Z,8.01
2016-12-09T05:14:30.463Z,7.93
2016-12-09T05:15:41.454Z,7.95
2016-12-09T05:16:52.434Z,8.01
2016-12-09T05:18:03.420Z,7.96
2016-12-09T05:19:14.457Z,7.93
2016-12-09T05:20:25.638Z,7.95
2016-12-09T05:21:36.618Z,7.95
2016-12-09T05:22:47.603Z,8.03
2016-12-09T05:23:58.587Z,7.96
2016-12-09T05:25:09.627Z,8.07
2016-12-09T05:26:20.626Z,8.01
2016-12-09T05:27:31.612Z,8.01
2016-12-09T05:28:42.808Z,8.07
2016-12-09T05:29:53.796Z,8.07
2016-12-09T05:31:04.867Z,8.06
2016-12-09T05:32:15.858Z,7.98
2016-12-09T05:33:26.845Z,7.99
2016-12-09T05:34:37.842Z,8.07
2016-12-09T05:35:48.835Z,8.1
2016-12-09T05:36:59.880Z,8.06
2016-12-09T05:38:11.276Z,8.1
2016-12-09T05:39:22.270Z,7.96
2016-12-09T05:40:33.261Z,8.06
2016-12-09T05:41:44.248Z,7.95
2016-12-09T05:42:55.287Z,8.04
2016-12-09T05:44:06.281Z,7.96
2016-12-09T05:45:17.274Z,8.06
2016-12-09T05:46:28.257Z,8.17
2016-12-09T05:47:39.244Z,8.17
2016-12-09T05:48:50.480Z,8.06
2016-12-09T05:50:01.475Z,8.11
2016-12-09T05:51:12.461Z,8.09
2016-12-09T05:52:23.855Z,8.13
2016-12-09T05:53:34.836Z,8.14
2016-12-09T05:54:45.880Z,8.16
2016-12-09T05:55:57.069Z,8.1
2016-12-09T05:57:08.258Z,8.13
2016-12-09T05:58:19.243Z,8.22
2016-12-09T05:59:30.247Z,8.22
2016-12-09T06:00:41.281Z,8.21
2016-12-09T06:01:52.269Z,8.19
2016-12-09T06:03:03.258Z,8.17
2016-12-09T06:04:14.252Z,8.13
2016-12-09T06:05:25.240Z,8.21
2016-12-09T06:06:36.274Z,8.19
2016-12-09T06:07:47.459Z,8.24
2016-12-09T06:08:58.440Z,8.29
2016-12-09T06:10:09.430Z,8.24
2016-12-09T06:11:20.431Z,8.24
2016-12-09T06:12:31.472Z,8.19
2016-12-09T06:13:42.464Z,8.22
2016-12-09T06:14:53.457Z,8.31
2016-12-09T06:16:04.473Z,8.25
2016-12-09T06:17:15.459Z,8.24
2016-12-09T06:18:26.493Z,8.25
2016-12-09T06:19:37.480Z,8.24
2016-12-09T06:20:48.701Z,8.26
2016-12-09T06:21:59.686Z,8.22
2016-12-09T06:23:10.671Z,8.26
2016-12-09T06:24:21.707Z,8.32
2016-12-09T06:25:32.681Z,8.25
2016-12-09T06:26:43.667Z,8.25
2016-12-09T06:27:54.660Z,8.25
2016-12-09T06:29:05.643Z,8.31
2016-12-09T06:30:16.680Z,8.31
2016-12-09T06:31:27.666Z,8.35
2016-12-09T06:32:38.851Z,8.34
2016-12-09T06:33:49.850Z,8.36
2016-12-09T06:35:00.836Z,8.35
2016-12-09T06:36:12.073Z,8.32
2016-12-09T06:37:23.073Z,8.35
2016-12-09T06:38:34.089Z,8.39
2016-12-09T06:39:45.079Z,8.34
2016-12-09T06:40:56.098Z,8.29
2016-12-09T06:42:07.132Z,8.32
2016-12-09T06:43:18.119Z,8.34
2016-12-09T06:44:29.099Z,8.32
2016-12-09T06:45:40.089Z,8.39
2016-12-09T06:46:51.284Z,8.39
2016-12-09T06:48:02.327Z,8.42
2016-12-09T06:49:13.525Z,8.47
2016-12-09T06:50:24.510Z,8.46
2016-12-09T06:51:35.496Z,8.35
2016-12-09T06:52:46.678Z,8.4
2016-12-09T06:53:57.710Z,8.36
2016-12-09T06:55:09.100Z,8.36
2016-12-09T06:56:20.082Z,8.32
2016-12-09T06:57:31.068Z,8.35
2016-12-09T06:58:42.055Z,8.34
2016-12-09T06:59:53.091Z,8.46
2016-12-09T07:01:04.078Z,8.34
2016-12-09T07:02:15.074Z,8.46
2016-12-09T07:03:26.254Z,8.42
2016-12-09T07:04:37.244Z,8.47
2016-12-09T07:05:48.480Z,8.4
2016-12-09T07:06:59.468Z,8.39
2016-12-09T07:08:10.446Z,8.36
2016-12-09T07:09:21.436Z,8.44
2016-12-09T07:10:32.413Z,8.47
2016-12-09T07:11:43.452Z,8.32
2016-12-09T07:12:54.437Z,8.46
2016-12-09T07:14:05.634Z,8.43
2016-12-09T07:15:16.625Z,8.4
2016-12-09T07:16:27.607Z,8.43
2016-12-09T07:17:38.641Z,8.44
2016-12-09T07:18:49.631Z,8.46
2016-12-09T07:20:00.821Z,8.43
2016-12-09T07:21:11.813Z,8.46
2016-12-09T07:22:22.803Z,8.47
2016-12-09T07:23:33.838Z,8.39
2016-12-09T07:24:44.836Z,8.43
2016-12-09T07:25:55.816Z,8.47
2016-12-09T07:27:06.810Z,8.47
2016-12-09T07:28:18.007Z,8.44
2016-12-09T07:29:29.042Z,8.5
2016-12-09T07:30:40.062Z,8.46
2016-12-09T07:31:51.051Z,8.46
2016-12-09T07:33:02.239Z,8.44
2016-12-09T07:34:13.231Z,8.44
2016-12-09T07:35:24.261Z,8.42
2016-12-09T07:36:35.256Z,8.42
2016-12-09T07:37:46.242Z,8.44
2016-12-09T07:38:57.235Z,8.42
2016-12-09T07:40:08.217Z,8.39
2016-12-09T07:41:19.272Z,8.4
2016-12-09T07:42:30.263Z,8.44
2016-12-09T07:43:41.254Z,8.44
2016-12-09T07:44:52.275Z,8.49
2016-12-09T07:46:03.256Z,8.43
2016-12-09T07:47:14.494Z,8.4
2016-12-09T07:48:25.474Z,8.39
2016-12-09T07:49:36.462Z,8.4
2016-12-09T07:50:47.653Z,8.44
2016-12-09T07:51:58.636Z,8.42
2016-12-09T07:53:09.677Z,8.46
2016-12-09T07:54:20.667Z,8.53
2016-12-09T07:55:31.652Z,8.54
2016-12-09T07:56:42.637Z,8.53
2016-12-09T07:57:53.620Z,8.65
2016-12-09T07:59:04.659Z,8.52
2016-12-09T08:00:15.650Z,8.57
2016-12-09T08:01:26.639Z,8.61
2016-12-09T08:02:37.626Z,8.62
2016-12-09T08:03:48.611Z,8.65
2016-12-09T08:04:59.646Z,8.54
2016-12-09T08:06:10.635Z,8.68
2016-12-09T08:07:21.617Z,8.58
2016-12-09T08:08:32.796Z,8.6
2016-12-09T08:09:43.780Z,8.52
2016-12-09T08:10:54.820Z,8.61
2016-12-09T08:12:05.810Z,8.52
2016-12-09T08:13:16.790Z,8.53
2016-12-09T08:14:27.974Z,8.54
2016-12-09T08:15:38.966Z,8.58
2016-12-09T08:16:50.001Z,8.57
2016-12-09T08:18:00.988Z,8.61
2016-12-09T08:19:11.968Z,8.5
2016-12-09T08:20:22.962Z,8.58
2016-12-09T08:21:33.952Z,8.52
2016-12-09T08:22:44.991Z,8.6
2016-12-09T08:23:55.976Z,8.52
2016-12-09T08:25:06.962Z,8.58
2016-12-09T08:26:17.948Z,8.57
2016-12-09T08:27:28.934Z,8.6
2016-12-09T08:28:39.982Z,8.54
2016-12-09T08:29:51.380Z,8.61
2016-12-09T08:31:02.367Z,8.57
2016-12-09T08:32:13.353Z,8.57
2016-12-09T08:33:24.337Z,8.54
2016-12-09T08:34:35.582Z,8.62
2016-12-09T08:35:46.565Z,8.52
2016-12-09T08:36:57.551Z,8.54
2016-12-09T08:38:08.763Z,8.6
2016-12-09T08:39:19.756Z,8.68
2016-12-09T08:40:30.792Z,8.64
2016-12-09T08:41:41.782Z,8.62
2016-12-09T08:42:52.771Z,8.62
2016-12-09T08:44:03.767Z,8.67
2016-12-09T08:45:14.773Z,8.67
2016-12-09T08:46:25.799Z,8.69
2016-12-09T08:47:36.791Z,8.69
2016-12-09T08:48:47.775Z,8.71
2016-12-09T08:49:58.769Z,8.68
2016-12-09T08:51:09.955Z,8.69
2016-12-09T08:52:20.998Z,8.71
2016-12-09T08:53:31.977Z,8.68
2016-12-09T08:54:43.164Z,8.69
2016-12-09T08:55:54.150Z,8.68
2016-12-09T08:57:05.342Z,8.74
2016-12-09T08:58:16.580Z,8.79
2016-12-09T08:59:27.767Z,8.82
2016-12-09T09:00:38.969Z,8.79
2016-12-09T09:01:49.954Z,8.83
2016-12-09T09:03:00.970Z,8.86
2016-12-09T09:04:12.033Z,8.89
2016-12-09T09:05:23.021Z,8.85
2016-12-09T09:06:34.208Z,8.92
2016-12-09T09:07:45.403Z,9.05
2016-12-09T09:08:56.395Z,9.16
2016-12-09T09:10:07.475Z,9.27
2016-12-09T09:11:18.460Z,9.37
2016-12-09T09:12:29.445Z,9.38
2016-12-09T09:13:40.427Z,9.39
2016-12-09T09:14:51.419Z,9.32
2016-12-09T09:16:02.461Z,9.24
2016-12-09T09:17:13.446Z,9.23
2016-12-09T09:18:24.435Z,9.19
2016-12-09T09:19:35.418Z,9.12
2016-12-09T09:20:46.406Z,9.14
2016-12-09T09:21:57.439Z,9.14
2016-12-09T09:23:08.628Z,9.12
2016-12-09T09:24:19.609Z,9.12
2016-12-09T09:25:30.598Z,9.11
2016-12-09T09:26:41.582Z,9.16
2016-12-09T09:27:52.632Z,9.21
2016-12-09T09:29:03.619Z,9.29
2016-12-09T09:30:14.605Z,9.21
2016-12-09T09:31:25.595Z,9.34
2016-12-09T09:32:36.589Z,9.26
2016-12-09T09:33:47.656Z,9.23
2016-12-09T09:34:58.684Z,9.11
2016-12-09T09:36:09.871Z,9.21
2016-12-09T09:37:20.865Z,9.11
2016-12-09T09:38:32.054Z,9.16
2016-12-09T09:39:43.087Z,9.16
2016-12-09T09:40:54.081Z,9.12
2016-12-09T09:42:05.060Z,9.09
2016-12-09T09:43:16.249Z,9.16
2016-12-09T09:44:27.447Z,9.17
2016-12-09T09:45:38.475Z,9.19
2016-12-09T09:46:49.466Z,9.17
2016-12-09T09:48:00.456Z,9.09
2016-12-09T09:49:11.651Z,9.2
2016-12-09T09:50:22.637Z,9.14
2016-12-09T09:51:33.698Z,9.04
2016-12-09T09:52:44.697Z,9.17
2016-12-09T09:53:55.687Z,9.17
2016-12-09T09:55:06.675Z,9.17
2016-12-09T09:56:17.677Z,9.19
2016-12-09T09:57:28.713Z,9.11
2016-12-09T09:58:39.693Z,9.16
2016-12-09T09:59:50.695Z,9.09
2016-12-09T10:01:01.686Z,9.16
2016-12-09T10:02:12.669Z,9.17
2016-12-09T10:03:23.708Z,9.12
2016-12-09T10:04:34.696Z,9.16
2016-12-09T10:05:45.692Z,9.12
2016-12-09T10:06:56.885Z,9.17
2016-12-09T10:08:07.875Z,9.16
2016-12-09T10:09:19.113Z,9.05
2016-12-09T10:10:30.109Z,9.17
2016-12-09T10:11:41.150Z,9.2
2016-12-09T10:12:52.148Z,9.2
2016-12-09T10:14:03.135Z,9.14
2016-12-09T10:15:14.371Z,9.14
2016-12-09T10:16:25.352Z,9.14
2016-12-09T10:17:36.541Z,9.11
2016-12-09T10:18:47.520Z,9.17
2016-12-09T10:19:58.502Z,9.11
2016-12-09T10:21:09.579Z,9.12
2016-12-09T10:22:20.580Z,9.12
2016-12-09T10:23:31.585Z,9.12
2016-12-09T10:24:42.567Z,9.14
2016-12-09T10:25:53.553Z,9.11
2016-12-09T10:27:04.589Z,9.17
2016-12-09T10:28:15.572Z,9.19
2016-12-09T10:29:26.560Z,9.14
2016-12-09T10:30:37.750Z,9.17
2016-12-09T10:31:48.737Z,9.23
2016-12-09T10:32:59.977Z,9.2
2016-12-09T10:34:10.966Z,9.2
2016-12-09T10:35:21.961Z,9.17
2016-12-09T10:36:32.979Z,9.08
2016-12-09T10:37:44.209Z,9.12
2016-12-09T10:38:55.255Z,9.14
2016-12-09T10:40:06.250Z,9.11
2016-12-09T10:41:17.443Z,9.26
2016-12-09T10:42:28.426Z,9.21
2016-12-09T10:43:39.618Z,9.24
2016-12-09T10:44:50.658Z,9.23
2016-12-09T10:46:01.637Z,9.21
2016-12-09T10:47:12.854Z,9.24
2016-12-09T10:48:24.035Z,9.34
2016-12-09T10:49:35.021Z,9.3
2016-12-09T10:50:46.060Z,9.35
2016-12-09T10:51:57.060Z,9.34
2016-12-09T10:53:08.044Z,9.27
2016-12-09T10:54:19.032Z,9.34
2016-12-09T10:55:30.030Z,9.32
2016-12-09T10:56:41.072Z,9.38
2016-12-09T10:57:52.266Z,9.37
2016-12-09T10:59:03.274Z,9.39
2016-12-09T11:00:14.261Z,9.41
2016-12-09T11:01:25.248Z,9.37
2016-12-09T11:02:36.280Z,9.37
2016-12-09T11:03:47.269Z,9.38
2016-12-09T11:04:58.457Z,9.41
2016-12-09T11:06:09.450Z,9.39
2016-12-09T11:07:20.435Z,9.39
2016-12-09T11:08:31.472Z,9.37
2016-12-09T11:09:42.466Z,9.42
2016-12-09T11:10:53.462Z,9.45
2016-12-09T11:12:04.462Z,9.41
2016-12-09T11:13:15.464Z,9.45
2016-12-09T11:14:26.500Z,9.5
2016-12-09T11:15:37.689Z,9.42
2016-12-09T11:16:48.676Z,9.47
2016-12-09T11:17:59.665Z,9.42
2016-12-09T11:19:10.647Z,9.53
2016-12-09T11:20:21.690Z,9.53
2016-12-09T11:21:32.684Z,9.5
2016-12-09T11:22:43.671Z,9.52
2016-12-09T11:23:54.661Z,9.56
2016-12-09T11:25:05.643Z,9.55
2016-12-09T11:26:16.684Z,9.56
2016-12-09T11:27:27.883Z,9.59
2016-12-09T11:28:39.065Z,9.59
2016-12-09T11:29:50.251Z,9.53
2016-12-09T11:31:01.242Z,9.6
2016-12-09T11:32:12.299Z,9.57
2016-12-09T11:33:23.291Z,9.53
2016-12-09T11:34:34.283Z,9.66
2016-12-09T11:35:45.268Z,9.66
2016-12-09T11:36:56.256Z,9.66
2016-12-09T11:38:07.492Z,9.67
2016-12-09T11:39:18.485Z,9.77
2016-12-09T11:40:29.460Z,9.77
2016-12-09T11:41:40.453Z,9.62
2016-12-09T11:42:51.441Z,9.78
2016-12-09T11:44:02.486Z,9.75
2016-12-09T11:45:13.490Z,9.67
2016-12-09T11:46:24.469Z,9.81
2016-12-09T11:47:35.655Z,9.75
2016-12-09T11:48:46.638Z,9.8
2016-12-09T11:49:57.711Z,9.74
2016-12-09T11:51:08.719Z,9.8
2016-12-09T11:52:19.923Z,9.77
2016-12-09T11:53:31.103Z,9.8
2016-12-09T11:54:42.091Z,9.71
2016-12-09T11:55:53.140Z,9.8
2016-12-09T11:57:04.325Z,9.66
2016-12-09T11:58:15.308Z,9.71
2016-12-09T11:59:26.494Z,9.66
2016-12-09T12:00:37.495Z,9.72
2016-12-09T12:01:48.545Z,9.84
2016-12-09T12:02:59.540Z,9.72
2016-12-09T12:04:10.526Z,9.72
2016-12-09T12:05:21.546Z,9.71
2016-12-09T12:06:32.937Z,9.78
2016-12-09T12:07:44.177Z,9.88
2016-12-09T12:08:55.165Z,9.85
2016-12-09T12:10:06.154Z,9.85
2016-12-09T12:11:17.346Z,9.89
2016-12-09T12:12:28.339Z,9.93
2016-12-09T12:13:39.377Z,9.88
2016-12-09T12:14:50.372Z,9.88
2016-12-09T12:16:01.361Z,9.89
2016-12-09T12:17:12.379Z,9.85
2016-12-09T12:18:23.362Z,9.95
2016-12-09T12:19:34.609Z,9.82
2016-12-09T12:20:45.598Z,9.85
2016-12-09T12:21:56.588Z,9.84
2016-12-09T12:23:07.576Z,9.92
2016-12-09T12:24:18.558Z,9.84
2016-12-09T12:25:29.598Z,9.93
2016-12-09T12:26:40.622Z,9.95
2016-12-09T12:27:51.615Z,9.88
2016-12-09T12:29:02.638Z,9.95
2016-12-09T12:30:13.629Z,9.96
2016-12-09T12:31:24.869Z,9.93
2016-12-09T12:32:35.858Z,9.95
2016-12-09T12:33:46.841Z,9.88
2016-12-09T12:34:58.035Z,9.92
2016-12-09T12:36:09.033Z,9.88
2016-12-09T12:37:20.097Z,9.85
2016-12-09T12:38:31.080Z,9.84
2016-12-09T12:39:42.277Z,9.85
2016-12-09T12:40:53.263Z,9.9
2016-12-09T12:42:04.252Z,9.8
2016-12-09T12:43:15.291Z,9.85
2016-12-09T12:44:26.486Z,9.85
2016-12-09T12:45:37.476Z,9.84
2016-12-09T12:46:48.448Z,9.89
2016-12-09T12:47:59.439Z,9.84
2016-12-09T12:49:10.513Z,9.89
2016-12-09T12:50:21.503Z,9.82
2016-12-09T12:51:32.496Z,9.82
2016-12-09T12:52:43.486Z,9.82
2016-12-09T12:53:54.479Z,9.85
2016-12-09T12:55:05.716Z,9.85
2016-12-09T12:56:16.706Z,9.93
2016-12-09T12:57:27.708Z,9.85
2016-12-09T12:58:38.900Z,9.9
2016-12-09T12:59:50.082Z,9.81
2016-12-09T13:01:01.122Z,9.84
2016-12-09T13:02:12.505Z,9.88
2016-12-09T13:03:23.498Z,9.77
2016-12-09T13:04:34.481Z,9.77
2016-12-09T13:05:45.464Z,9.8
2016-12-09T13:06:56.702Z,9.88
2016-12-09T13:08:07.694Z,9.85
2016-12-09T13:09:18.884Z,9.88
2016-12-09T13:10:29.867Z,9.85
2016-12-09T13:11:40.883Z,9.9
2016-12-09T13:12:51.926Z,9.88
2016-12-09T13:14:03.115Z,9.78
2016-12-09T13:15:14.092Z,9.85
2016-12-09T13:16:25.086Z,9.92
2016-12-09T13:17:36.074Z,9.88
2016-12-09T13:18:47.113Z,9.81
2016-12-09T13:19:58.099Z,9.85
2016-12-09T13:21:09.086Z,9.81
2016-12-09T13:22:20.067Z,9.78
2016-12-09T13:23:31.055Z,9.78
2016-12-09T13:24:42.298Z,9.82
2016-12-09T13:25:53.291Z,9.85
2016-12-09T13:27:04.475Z,9.9
2016-12-09T13:28:15.465Z,9.9
2016-12-09T13:29:26.460Z,9.74
2016-12-09T13:30:37.499Z,9.77
2016-12-09T13:31:48.552Z,9.78
2016-12-09T13:32:59.538Z,9.92
2016-12-09T13:34:10.535Z,9.82
2016-12-09T13:35:21.720Z,9.84
2016-12-09T13:36:32.755Z,9.84
2016-12-09T13:37:43.743Z,9.9
2016-12-09T13:38:54.964Z,9.89
2016-12-09T13:40:06.157Z,9.88
2016-12-09T13:41:17.166Z,9.89
2016-12-09T13:42:28.196Z,9.89
2016-12-09T13:43:39.183Z,9.89
2016-12-09T13:44:50.178Z,9.84
2016-12-09T13:46:01.362Z,9.85
2016-12-09T13:47:12.352Z,9.85
2016-12-09T13:48:23.597Z,9.98
2016-12-09T13:49:34.577Z,9.82
2016-12-09T13:50:45.562Z,9.82
2016-12-09T13:51:56.550Z,9.85
2016-12-09T13:53:07.547Z,9.88
2016-12-09T13:54:18.583Z,9.95
2016-12-09T13:55:29.570Z,9.93
2016-12-09T13:56:40.758Z,9.93
2016-12-09T13:57:51.954Z,9.93
2016-12-09T13:59:02.937Z,9.93
2016-12-09T14:00:13.973Z,9.99
2016-12-09T14:01:24.957Z,9.96
2016-12-09T14:02:35.957Z,10.02
2016-12-09T14:03:47.144Z,9.96
2016-12-09T14:04:58.141Z,10.02
2016-12-09T14:06:09.186Z,10
2016-12-09T14:07:20.172Z,10.05
2016-12-09T14:08:31.364Z,10.14
2016-12-09T14:09:42.363Z,10.15
2016-12-09T14:10:53.346Z,10.08
2016-12-09T14:12:04.387Z,10.08
2016-12-09T14:13:15.379Z,10.08
2016-12-09T14:14:26.365Z,10.1
2016-12-09T14:15:37.361Z,10.13
2016-12-09T14:16:48.344Z,10.15
2016-12-09T14:17:59.579Z,10.11
2016-12-09T14:19:10.563Z,10.08
2016-12-09T14:20:21.763Z,9.96
2016-12-09T14:21:32.755Z,9.99
2016-12-09T14:22:43.955Z,9.99
2016-12-09T14:23:55.027Z,10
2016-12-09T14:25:06.020Z,9.99
2016-12-09T14:26:17.214Z,9.99
2016-12-09T14:27:28.204Z,10.03
2016-12-09T14:28:39.197Z,9.99
2016-12-09T14:29:50.234Z,9.98
2016-12-09T14:31:01.228Z,9.98
2016-12-09T14:32:12.221Z,9.85
2016-12-09T14:33:23.208Z,9.98
2016-12-09T14:34:34.196Z,9.84
2016-12-09T14:35:45.237Z,9.84
2016-12-09T14:36:56.428Z,9.9
2016-12-09T14:38:07.415Z,9.89
2016-12-09T14:39:18.419Z,9.98
2016-12-09T14:40:29.424Z,9.85
2016-12-09T14:41:40.687Z,9.85
2016-12-09T14:42:51.690Z,9.89
2016-12-09T14:44:02.683Z,9.88
2016-12-09T14:45:13.672Z,9.84
2016-12-09T14:46:24.662Z,9.85
2016-12-09T14:47:36.106Z,9.88
2016-12-09T14:48:47.294Z,9.85
2016-12-09T14:49:58.483Z,9.89
2016-12-09T14:51:09.476Z,9.85
2016-12-09T14:52:20.490Z,9.82
2016-12-09T14:53:31.733Z,9.85
2016-12-09T14:54:42.926Z,9.88
2016-12-09T14:55:53.911Z,9.88
2016-12-09T14:57:04.895Z,9.88
2016-12-09T14:58:15.884Z,9.81
2016-12-09T14:59:26.921Z,9.88
2016-12-09T15:00:37.907Z,9.85
2016-12-09T15:01:48.889Z,9.85
2016-12-09T15:02:59.879Z,9.84
2016-12-09T15:04:10.864Z,9.77
2016-12-09T15:05:22.107Z,9.77
2016-12-09T15:06:33.102Z,9.75
2016-12-09T15:07:44.087Z,9.75
2016-12-09T15:08:55.090Z,9.88
2016-12-09T15:10:06.116Z,9.85
2016-12-09T15:11:17.151Z,9.81
2016-12-09T15:12:28.146Z,9.88
2016-12-09T15:13:39.129Z,9.84
2016-12-09T15:14:50.116Z,9.84
2016-12-09T15:16:01.304Z,9.9
2016-12-09T15:17:12.331Z,9.82
2016-12-09T15:18:23.319Z,9.82
2016-12-09T15:19:34.522Z,9.81
2016-12-09T15:20:45.517Z,9.88
2016-12-09T15:21:56.501Z,9.77
2016-12-09T15:23:07.541Z,9.77
2016-12-09T15:24:18.738Z,9.81
2016-12-09T15:25:29.736Z,9.71
2016-12-09T15:26:40.727Z,9.8
2016-12-09T15:27:52.112Z,9.74
2016-12-09T15:29:03.152Z,9.75
2016-12-09T15:30:14.344Z,9.75
2016-12-09T15:31:25.326Z,9.8
2016-12-09T15:32:36.317Z,9.77
2016-12-09T15:33:47.306Z,9.74
2016-12-09T15:34:58.539Z,9.75
2016-12-09T15:36:09.561Z,9.8
2016-12-09T15:37:20.546Z,9.75
2016-12-09T15:38:31.527Z,9.78
2016-12-09T15:39:42.513Z,9.78
2016-12-09T15:40:53.567Z,9.88
2016-12-09T15:42:04.565Z,9.77
2016-12-09T15:43:15.761Z,9.88
2016-12-09T15:44:26.766Z,9.75
2016-12-09T15:45:37.776Z,9.82
2016-12-09T15:46:48.817Z,9.84